Deer River, MN (56636)

4:28 PM CST on February 07, 2016 (GMT -0600)
Ye old Homestead | | Change Station
CLOSE
Current Station
Personal Weather Station
Location: Deer River, MN
Elevation: 1339 ft
Nearby Weather Stations
Active Advisory: Winter Weather Advisory Active Notice: Local Storm Report

Elev 1339 ft 47.37 °N, 93.83 °W | Updated 4 minutes ago

Snow
Snow
22.5 °F
Feels Like 16 °F
N
5.3
Wind Variable Wind from WNW

Today
High -- | Low -- °F
--% Chance of Precip.
Yesterday
High -- | Low -- °F
Precip. -- in
Pressure 29.56 in
Visibility 7.0 miles
Clouds Overcast 1300 ft
Windchill 16 °F
Dew Point 21 °F
Humidity 94%
Rainfall 0.09 in
Snow Depth Not available.
7:33 AM 5:26 PM
Waning Crescent, 1% visible
METAR KGPZ 072215Z AUTO 30015G22KT 7SM OVC013 M04/M08 A2956 RMK AO1
Pressure 29.56 in
Visibility 7.0 miles
Clouds Overcast 1300 ft
Windchill 16 °F
Dew Point 21 °F
Humidity 94%
Rainfall 0.09 in
Snow Depth Not available.
7:33 AM 5:26 PM
Waning Crescent, 1% visible
METAR KGPZ 072215Z AUTO 30015G22KT 7SM OVC013 M04/M08 A2956 RMK AO1

10-Day Weather Forecast

Almanac

Astronomy

Feb. 07, 2016 Rise Set
Actual Time
Civil Twilight
Nautical Twilight
Astronomical Twilight
Moon
Length of Visible Light
Length of Day
Tomorrow will be .
, % of the Moon is Illuminated

Today's Extremes

State Highs State Lows

Community

WunderPhotos

Upload Photos

1,891,318 photos uploaded!

WunderBlog® & News

Nearby

Air Quality

  Air Quality AQ Index Pollutant
Not available.

Snow Depth

Station Depth Elevation

Earthquake Activity

City Distance Mag. Time & Date
Minimum magnitude displayed is 2.5.

Coastal Water Temperatures

Place Temperature

Stations

Nearby Weather Stations

Station Location Temp. Windchill Dew Point Humidity Wind Precip. Elev Updated Type
                   

Watches & Warnings

Winter Weather Advisory
Issued: 3:16 PM CST Feb. 7, 2016 – National Weather Service

... Winter Weather Advisory remains in effect until 6 am CST
Monday...

* locations... International Falls south to Grand Rapids... the
Brainerd lakes and Lake Mille lacs.

* Snow accumulations... 2 to 4 inches.

* Winds... northwest 10 to 20 mph with gusts up to 30 mph.

* Visibilities... reduced to less than one mile at times in snow
and blowing snow.

Precautionary/preparedness actions...

A Winter Weather Advisory for snow and blowing snow means that
visibilities will be limited due to a combination of falling and
blowing snow. Use caution when traveling... especially in open
areas that are more exposed to the wind. Roads may be slick and
hazardous... so allow extra time to reach your destination.